sensor_id;sensor_type;location;lat;lon;timestamp;pressure;altitude;pressure_sealevel;temperature;humidity
51299;BME280;37382;45.192;9.790;2023-05-22T00:00:07;100963.97;;;18.10;100.00
51299;BME280;37382;45.192;9.790;2023-05-22T00:02:35;100966.84;;;18.04;100.00
51299;BME280;37382;45.192;9.790;2023-05-22T00:05:13;100972.34;;;17.92;100.00
51299;BME280;37382;45.192;9.790;2023-05-22T00:07:41;100968.63;;;18.10;100.00
51299;BME280;37382;45.192;9.790;2023-05-22T00:10:09;100962.38;;;18.26;100.00
51299;BME280;37382;45.192;9.790;2023-05-22T00:12:37;100978.41;;;18.18;100.00
51299;BME280;37382;45.192;9.790;2023-05-22T00:15:05;100983.13;;;18.05;100.00
51299;BME280;37382;45.192;9.790;2023-05-22T00:17:32;100975.72;;;17.94;100.00
51299;BME280;37382;45.192;9.790;2023-05-22T00:20:01;100978.97;;;17.91;100.00
51299;BME280;37382;45.192;9.790;2023-05-22T00:22:30;100986.13;;;17.80;100.00
51299;BME280;37382;45.192;9.790;2023-05-22T00:25:06;100989.94;;;17.79;100.00
51299;BME280;37382;45.192;9.790;2023-05-22T00:27:33;101002.38;;;17.93;100.00
51299;BME280;37382;45.192;9.790;2023-05-22T00:30:01;100997.00;;;18.10;100.00
51299;BME280;37382;45.192;9.790;2023-05-22T00:32:28;100998.78;;;18.17;100.00
51299;BME280;37382;45.192;9.790;2023-05-22T00:34:55;101002.53;;;18.51;100.00
51299;BME280;37382;45.192;9.790;2023-05-22T00:37:23;101005.44;;;18.73;100.00
51299;BME280;37382;45.192;9.790;2023-05-22T00:39:51;100992.50;;;18.74;100.00
51299;BME280;37382;45.192;9.790;2023-05-22T00:42:19;100991.88;;;18.83;100.00
51299;BME280;37382;45.192;9.790;2023-05-22T00:44:47;101002.22;;;19.05;100.00
51299;BME280;37382;45.192;9.790;2023-05-22T00:47:15;101001.59;;;18.74;100.00
51299;BME280;37382;45.192;9.790;2023-05-22T00:49:43;100995.25;;;18.74;100.00
51299;BME280;37382;45.192;9.790;2023-05-22T00:52:11;101006.13;;;18.52;100.00
51299;BME280;37382;45.192;9.790;2023-05-22T00:54:40;101001.53;;;18.17;100.00
51299;BME280;37382;45.192;9.790;2023-05-22T00:57:09;101001.91;;;18.08;100.00
51299;BME280;37382;45.192;9.790;2023-05-22T00:59:37;101003.25;;;17.94;100.00
51299;BME280;37382;45.192;9.790;2023-05-22T01:02:05;101001.16;;;18.25;100.00
51299;BME280;37382;45.192;9.790;2023-05-22T01:04:33;101002.44;;;18.46;100.00
51299;BME280;37382;45.192;9.790;2023-05-22T01:07:01;100998.84;;;18.45;100.00
51299;BME280;37382;45.192;9.790;2023-05-22T01:09:32;100993.41;;;18.62;100.00
51299;BME280;37382;45.192;9.790;2023-05-22T01:12:30;100997.97;;;18.57;100.00
51299;BME280;37382;45.192;9.790;2023-05-22T01:17:45;101001.91;;;18.61;100.00
51299;BME280;37382;45.192;9.790;2023-05-22T01:31:47;101004.13;;;18.47;100.00
51299;BME280;37382;45.192;9.790;2023-05-22T01:34:17;100995.13;;;18.52;100.00
51299;BME280;37382;45.192;9.790;2023-05-22T01:36:47;100993.03;;;18.59;100.00
51299;BME280;37382;45.192;9.790;2023-05-22T01:39:18;100998.13;;;18.50;100.00
51299;BME280;37382;45.192;9.790;2023-05-22T01:41:46;100995.97;;;18.40;100.00
51299;BME280;37382;45.192;9.790;2023-05-22T01:44:14;100997.44;;;18.31;100.00
51299;BME280;37382;45.192;9.790;2023-05-22T01:46:41;100994.50;;;18.09;100.00
51299;BME280;37382;45.192;9.790;2023-05-22T01:49:08;100999.03;;;18.15;100.00
51299;BME280;37382;45.192;9.790;2023-05-22T01:59:47;101016.84;;;18.24;100.00
51299;BME280;37382;45.192;9.790;2023-05-22T02:02:18;100997.22;;;18.21;100.00
51299;BME280;37382;45.192;9.790;2023-05-22T02:05:05;101011.47;;;18.06;100.00
51299;BME280;37382;45.192;9.790;2023-05-22T02:07:55;101001.19;;;18.01;100.00
51299;BME280;37382;45.192;9.790;2023-05-22T02:10:25;100988.16;;;17.96;100.00
51299;BME280;37382;45.192;9.790;2023-05-22T02:12:54;100991.38;;;18.05;100.00
51299;BME280;37382;45.192;9.790;2023-05-22T02:15:22;100989.56;;;18.11;100.00
51299;BME280;37382;45.192;9.790;2023-05-22T02:17:50;100991.69;;;18.21;100.00
51299;BME280;37382;45.192;9.790;2023-05-22T02:20:20;100992.50;;;18.33;100.00
51299;BME280;37382;45.192;9.790;2023-05-22T02:22:47;100995.56;;;18.20;100.00
51299;BME280;37382;45.192;9.790;2023-05-22T02:25:15;100989.25;;;18.36;100.00
51299;BME280;37382;45.192;9.790;2023-05-22T02:27:47;100979.22;;;18.30;100.00
51299;BME280;37382;45.192;9.790;2023-05-22T02:30:15;100978.22;;;18.07;100.00
51299;BME280;37382;45.192;9.790;2023-05-22T02:32:47;100989.34;;;17.89;100.00
51299;BME280;37382;45.192;9.790;2023-05-22T02:35:15;100985.16;;;17.63;100.00
51299;BME280;37382;45.192;9.790;2023-05-22T02:37:44;100994.22;;;17.75;100.00
51299;BME280;37382;45.192;9.790;2023-05-22T02:40:12;100991.97;;;17.84;100.00
51299;BME280;37382;45.192;9.790;2023-05-22T02:42:41;100982.28;;;17.93;100.00
51299;BME280;37382;45.192;9.790;2023-05-22T02:45:10;100982.88;;;17.71;100.00
51299;BME280;37382;45.192;9.790;2023-05-22T02:47:37;100985.75;;;17.53;100.00
51299;BME280;37382;45.192;9.790;2023-05-22T02:50:06;100986.72;;;17.47;100.00
51299;BME280;37382;45.192;9.790;2023-05-22T02:52:34;100983.56;;;17.19;100.00
51299;BME280;37382;45.192;9.790;2023-05-22T02:55:03;100991.28;;;17.11;100.00
51299;BME280;37382;45.192;9.790;2023-05-22T02:57:31;100997.44;;;17.36;100.00
51299;BME280;37382;45.192;9.790;2023-05-22T02:59:59;100994.31;;;17.21;100.00
51299;BME280;37382;45.192;9.790;2023-05-22T03:02:28;100988.91;;;17.02;100.00
51299;BME280;37382;45.192;9.790;2023-05-22T03:04:58;101000.94;;;17.01;100.00
51299;BME280;37382;45.192;9.790;2023-05-22T03:07:26;101006.50;;;17.25;100.00
51299;BME280;37382;45.192;9.790;2023-05-22T03:09:56;101002.56;;;17.21;100.00
51299;BME280;37382;45.192;9.790;2023-05-22T03:12:23;100990.22;;;17.23;100.00
51299;BME280;37382;45.192;9.790;2023-05-22T03:14:52;100994.78;;;17.30;100.00
51299;BME280;37382;45.192;9.790;2023-05-22T03:17:19;100997.19;;;17.26;100.00
51299;BME280;37382;45.192;9.790;2023-05-22T03:19:47;100993.72;;;17.31;100.00
51299;BME280;37382;45.192;9.790;2023-05-22T03:22:15;100990.66;;;16.97;100.00
51299;BME280;37382;45.192;9.790;2023-05-22T03:24:44;100995.56;;;16.95;100.00
51299;BME280;37382;45.192;9.790;2023-05-22T03:27:14;100996.41;;;16.77;100.00
51299;BME280;37382;45.192;9.790;2023-05-22T03:29:46;100997.59;;;16.69;100.00
51299;BME280;37382;45.192;9.790;2023-05-22T03:32:15;100999.00;;;16.71;100.00
51299;BME280;37382;45.192;9.790;2023-05-22T03:34:43;100997.94;;;16.72;100.00
51299;BME280;37382;45.192;9.790;2023-05-22T03:37:11;101001.38;;;16.68;100.00
51299;BME280;37382;45.192;9.790;2023-05-22T03:39:39;101000.97;;;16.52;100.00
51299;BME280;37382;45.192;9.790;2023-05-22T03:42:17;100996.53;;;16.51;100.00
51299;BME280;37382;45.192;9.790;2023-05-22T03:44:45;101001.97;;;16.58;100.00
51299;BME280;37382;45.192;9.790;2023-05-22T03:47:12;101001.75;;;16.71;100.00
51299;BME280;37382;45.192;9.790;2023-05-22T03:49:40;101003.53;;;16.66;100.00
51299;BME280;37382;45.192;9.790;2023-05-22T03:52:10;101009.69;;;16.80;100.00
51299;BME280;37382;45.192;9.790;2023-05-22T03:54:37;101014.28;;;16.67;100.00
51299;BME280;37382;45.192;9.790;2023-05-22T03:57:05;101013.31;;;16.62;100.00
51299;BME280;37382;45.192;9.790;2023-05-22T03:59:33;101014.38;;;16.61;100.00
51299;BME280;37382;45.192;9.790;2023-05-22T04:02:00;101017.47;;;16.83;100.00
51299;BME280;37382;45.192;9.790;2023-05-22T04:04:28;101007.44;;;17.19;100.00
51299;BME280;37382;45.192;9.790;2023-05-22T04:06:55;101012.03;;;16.76;100.00
51299;BME280;37382;45.192;9.790;2023-05-22T04:09:25;101021.09;;;16.65;100.00
51299;BME280;37382;45.192;9.790;2023-05-22T04:11:57;101029.13;;;16.48;100.00
51299;BME280;37382;45.192;9.790;2023-05-22T04:14:24;101031.16;;;16.52;100.00
51299;BME280;37382;45.192;9.790;2023-05-22T04:16:52;101030.31;;;16.52;100.00
51299;BME280;37382;45.192;9.790;2023-05-22T04:19:20;101030.72;;;16.56;100.00
51299;BME280;37382;45.192;9.790;2023-05-22T04:21:48;101028.09;;;16.61;100.00
51299;BME280;37382;45.192;9.790;2023-05-22T04:24:16;101019.41;;;16.64;100.00
51299;BME280;37382;45.192;9.790;2023-05-22T04:26:44;101025.28;;;16.67;100.00
51299;BME280;37382;45.192;9.790;2023-05-22T04:29:12;101022.06;;;16.52;100.00
51299;BME280;37382;45.192;9.790;2023-05-22T04:31:43;101028.94;;;16.43;100.00
51299;BME280;37382;45.192;9.790;2023-05-22T04:34:11;101024.59;;;16.53;100.00
51299;BME280;37382;45.192;9.790;2023-05-22T04:36:42;101032.56;;;16.43;100.00
51299;BME280;37382;45.192;9.790;2023-05-22T04:39:11;101030.78;;;16.49;100.00
51299;BME280;37382;45.192;9.790;2023-05-22T04:41:40;101035.56;;;16.53;100.00
51299;BME280;37382;45.192;9.790;2023-05-22T04:44:08;101036.25;;;16.49;100.00
51299;BME280;37382;45.192;9.790;2023-05-22T04:46:35;101033.69;;;16.54;100.00
51299;BME280;37382;45.192;9.790;2023-05-22T04:49:03;101033.22;;;16.57;100.00
51299;BME280;37382;45.192;9.790;2023-05-22T04:51:31;101036.56;;;16.59;100.00
51299;BME280;37382;45.192;9.790;2023-05-22T04:54:18;101034.22;;;16.63;100.00
51299;BME280;37382;45.192;9.790;2023-05-22T04:57:04;101033.53;;;16.49;100.00
51299;BME280;37382;45.192;9.790;2023-05-22T04:59:50;101038.31;;;16.72;100.00
51299;BME280;37382;45.192;9.790;2023-05-22T05:02:20;101042.66;;;16.98;100.00
51299;BME280;37382;45.192;9.790;2023-05-22T05:04:48;101044.91;;;17.32;100.00
51299;BME280;37382;45.192;9.790;2023-05-22T05:07:16;101045.38;;;17.29;100.00
51299;BME280;37382;45.192;9.790;2023-05-22T05:09:44;101043.34;;;16.94;100.00
51299;BME280;37382;45.192;9.790;2023-05-22T05:12:12;101040.88;;;17.04;100.00
51299;BME280;37382;45.192;9.790;2023-05-22T05:14:40;101052.09;;;17.02;100.00
51299;BME280;37382;45.192;9.790;2023-05-22T05:17:08;101051.41;;;17.07;100.00
51299;BME280;37382;45.192;9.790;2023-05-22T05:19:35;101047.34;;;17.10;100.00
51299;BME280;37382;45.192;9.790;2023-05-22T05:22:03;101046.16;;;17.17;100.00
51299;BME280;37382;45.192;9.790;2023-05-22T05:24:31;101044.63;;;17.21;100.00
51299;BME280;37382;45.192;9.790;2023-05-22T05:26:59;101042.94;;;17.20;100.00
51299;BME280;37382;45.192;9.790;2023-05-22T05:29:27;101046.47;;;17.39;100.00
51299;BME280;37382;45.192;9.790;2023-05-22T05:32:03;101040.22;;;17.32;100.00
51299;BME280;37382;45.192;9.790;2023-05-22T05:34:38;101045.25;;;17.35;100.00
51299;BME280;37382;45.192;9.790;2023-05-22T05:37:18;101035.34;;;17.34;100.00
51299;BME280;37382;45.192;9.790;2023-05-22T05:39:47;101042.66;;;17.40;100.00
51299;BME280;37382;45.192;9.790;2023-05-22T05:42:15;101037.00;;;17.35;100.00
51299;BME280;37382;45.192;9.790;2023-05-22T05:44:45;101046.34;;;17.34;100.00
51299;BME280;37382;45.192;9.790;2023-05-22T05:47:12;101049.59;;;17.55;100.00
51299;BME280;37382;45.192;9.790;2023-05-22T05:49:40;101051.69;;;18.19;100.00
51299;BME280;37382;45.192;9.790;2023-05-22T05:52:08;101057.53;;;18.46;100.00
51299;BME280;37382;45.192;9.790;2023-05-22T05:54:36;101051.63;;;18.42;100.00
51299;BME280;37382;45.192;9.790;2023-05-22T05:57:13;101053.78;;;18.52;100.00
51299;BME280;37382;45.192;9.790;2023-05-22T05:59:40;101062.38;;;18.03;100.00
51299;BME280;37382;45.192;9.790;2023-05-22T06:02:24;101059.94;;;18.19;100.00
51299;BME280;37382;45.192;9.790;2023-05-22T06:04:55;101068.53;;;17.87;100.00
51299;BME280;37382;45.192;9.790;2023-05-22T06:07:23;101064.00;;;18.04;100.00
51299;BME280;37382;45.192;9.790;2023-05-22T06:09:52;101067.38;;;18.18;100.00
51299;BME280;37382;45.192;9.790;2023-05-22T06:12:39;101070.59;;;17.91;100.00
51299;BME280;37382;45.192;9.790;2023-05-22T06:15:08;101073.06;;;17.81;100.00
51299;BME280;37382;45.192;9.790;2023-05-22T06:17:39;101074.88;;;17.87;100.00
51299;BME280;37382;45.192;9.790;2023-05-22T06:20:08;101075.34;;;17.84;100.00
51299;BME280;37382;45.192;9.790;2023-05-22T06:22:36;101069.19;;;18.01;100.00
51299;BME280;37382;45.192;9.790;2023-05-22T06:25:04;101070.09;;;18.30;100.00
51299;BME280;37382;45.192;9.790;2023-05-22T06:27:33;101078.25;;;18.48;100.00
51299;BME280;37382;45.192;9.790;2023-05-22T06:30:01;101072.66;;;18.20;100.00
51299;BME280;37382;45.192;9.790;2023-05-22T06:32:35;101071.41;;;18.39;100.00
51299;BME280;37382;45.192;9.790;2023-05-22T06:35:04;101075.13;;;18.45;100.00
51299;BME280;37382;45.192;9.790;2023-05-22T06:37:32;101069.50;;;18.52;100.00
51299;BME280;37382;45.192;9.790;2023-05-22T06:40:03;101072.00;;;18.53;100.00
51299;BME280;37382;45.192;9.790;2023-05-22T06:42:38;101076.06;;;18.62;100.00
51299;BME280;37382;45.192;9.790;2023-05-22T06:45:29;101070.13;;;18.94;100.00
51299;BME280;37382;45.192;9.790;2023-05-22T06:48:25;101067.72;;;18.74;100.00
51299;BME280;37382;45.192;9.790;2023-05-22T06:51:08;101064.72;;;19.62;100.00
51299;BME280;37382;45.192;9.790;2023-05-22T06:53:39;101062.66;;;19.86;100.00
51299;BME280;37382;45.192;9.790;2023-05-22T06:56:16;101061.38;;;19.60;100.00
51299;BME280;37382;45.192;9.790;2023-05-22T06:58:59;101053.69;;;19.16;100.00
51299;BME280;37382;45.192;9.790;2023-05-22T07:01:45;101058.09;;;19.29;100.00
51299;BME280;37382;45.192;9.790;2023-05-22T07:04:18;101060.88;;;19.46;100.00
51299;BME280;37382;45.192;9.790;2023-05-22T07:06:57;101055.63;;;19.79;100.00
51299;BME280;37382;45.192;9.790;2023-05-22T07:09:24;101059.47;;;19.95;100.00
51299;BME280;37382;45.192;9.790;2023-05-22T07:11:53;101054.53;;;20.36;100.00
51299;BME280;37382;45.192;9.790;2023-05-22T07:14:20;101050.28;;;19.89;100.00
51299;BME280;37382;45.192;9.790;2023-05-22T07:16:48;101061.47;;;19.82;100.00
51299;BME280;37382;45.192;9.790;2023-05-22T07:19:22;101062.38;;;20.44;100.00
51299;BME280;37382;45.192;9.790;2023-05-22T07:21:49;101061.91;;;20.52;100.00
51299;BME280;37382;45.192;9.790;2023-05-22T07:24:20;101062.69;;;20.48;100.00
51299;BME280;37382;45.192;9.790;2023-05-22T07:26:49;101061.31;;;20.89;100.00
51299;BME280;37382;45.192;9.790;2023-05-22T07:29:17;101067.56;;;21.07;100.00
51299;BME280;37382;45.192;9.790;2023-05-22T07:31:47;101064.09;;;20.50;100.00
51299;BME280;37382;45.192;9.790;2023-05-22T07:34:16;101061.34;;;20.50;100.00
51299;BME280;37382;45.192;9.790;2023-05-22T07:36:45;101067.59;;;20.40;100.00
51299;BME280;37382;45.192;9.790;2023-05-22T07:39:13;101055.69;;;20.40;100.00
51299;BME280;37382;45.192;9.790;2023-05-22T07:41:47;101044.16;;;20.65;100.00
51299;BME280;37382;45.192;9.790;2023-05-22T07:44:18;101049.34;;;20.84;100.00
51299;BME280;37382;45.192;9.790;2023-05-22T07:46:46;101049.56;;;21.31;100.00
51299;BME280;37382;45.192;9.790;2023-05-22T07:49:18;101045.59;;;21.22;100.00
51299;BME280;37382;45.192;9.790;2023-05-22T07:51:49;101049.03;;;21.35;100.00
51299;BME280;37382;45.192;9.790;2023-05-22T07:54:19;101047.44;;;21.71;100.00
51299;BME280;37382;45.192;9.790;2023-05-22T07:56:51;101047.00;;;21.25;100.00
51299;BME280;37382;45.192;9.790;2023-05-22T07:59:20;101043.97;;;21.26;100.00
51299;BME280;37382;45.192;9.790;2023-05-22T08:01:50;101050.59;;;22.28;100.00
51299;BME280;37382;45.192;9.790;2023-05-22T08:04:18;101042.13;;;22.55;100.00
51299;BME280;37382;45.192;9.790;2023-05-22T08:06:46;101043.25;;;22.54;100.00
51299;BME280;37382;45.192;9.790;2023-05-22T08:09:14;101042.41;;;22.48;100.00
51299;BME280;37382;45.192;9.790;2023-05-22T08:11:41;101047.84;;;21.85;100.00
51299;BME280;37382;45.192;9.790;2023-05-22T08:14:09;101039.56;;;21.95;100.00
51299;BME280;37382;45.192;9.790;2023-05-22T08:16:37;101036.50;;;21.92;100.00
51299;BME280;37382;45.192;9.790;2023-05-22T08:19:05;101042.06;;;21.97;100.00
51299;BME280;37382;45.192;9.790;2023-05-22T08:21:35;101041.78;;;22.36;100.00
51299;BME280;37382;45.192;9.790;2023-05-22T08:24:03;101033.00;;;22.54;100.00
51299;BME280;37382;45.192;9.790;2023-05-22T08:26:31;101036.03;;;22.48;100.00
51299;BME280;37382;45.192;9.790;2023-05-22T08:28:59;101021.09;;;22.59;100.00
51299;BME280;37382;45.192;9.790;2023-05-22T08:31:27;101024.13;;;22.58;100.00
51299;BME280;37382;45.192;9.790;2023-05-22T08:33:55;101023.81;;;22.49;100.00
51299;BME280;37382;45.192;9.790;2023-05-22T08:36:30;101025.59;;;22.23;100.00
51299;BME280;37382;45.192;9.790;2023-05-22T08:39:01;101023.31;;;22.57;100.00
51299;BME280;37382;45.192;9.790;2023-05-22T08:41:29;101024.41;;;22.51;100.00
51299;BME280;37382;45.192;9.790;2023-05-22T08:43:57;101023.00;;;22.53;100.00
51299;BME280;37382;45.192;9.790;2023-05-22T08:46:25;101022.00;;;22.85;100.00
51299;BME280;37382;45.192;9.790;2023-05-22T08:48:56;101006.75;;;22.83;100.00
51299;BME280;37382;45.192;9.790;2023-05-22T08:51:28;101015.94;;;22.94;100.00
51299;BME280;37382;45.192;9.790;2023-05-22T08:53:57;101013.13;;;22.78;100.00
51299;BME280;37382;45.192;9.790;2023-05-22T08:56:29;101011.19;;;22.94;100.00
51299;BME280;37382;45.192;9.790;2023-05-22T08:58:58;101014.28;;;22.98;100.00
51299;BME280;37382;45.192;9.790;2023-05-22T09:01:31;101017.00;;;22.82;100.00
51299;BME280;37382;45.192;9.790;2023-05-22T09:04:00;101012.84;;;22.80;100.00
51299;BME280;37382;45.192;9.790;2023-05-22T09:06:28;101013.94;;;22.73;100.00
51299;BME280;37382;45.192;9.790;2023-05-22T09:08:58;101011.22;;;22.99;100.00
51299;BME280;37382;45.192;9.790;2023-05-22T09:11:25;101012.09;;;23.20;100.00
51299;BME280;37382;45.192;9.790;2023-05-22T09:14:05;101013.94;;;22.84;100.00
51299;BME280;37382;45.192;9.790;2023-05-22T09:16:45;101006.78;;;23.03;100.00
51299;BME280;37382;45.192;9.790;2023-05-22T09:19:14;101007.41;;;23.36;100.00
51299;BME280;37382;45.192;9.790;2023-05-22T09:21:43;101006.84;;;23.34;100.00
51299;BME280;37382;45.192;9.790;2023-05-22T09:24:12;101009.06;;;23.48;100.00
51299;BME280;37382;45.192;9.790;2023-05-22T09:26:39;101002.38;;;23.54;100.00
51299;BME280;37382;45.192;9.790;2023-05-22T09:29:07;101009.34;;;23.46;100.00
51299;BME280;37382;45.192;9.790;2023-05-22T09:31:42;101007.38;;;23.67;100.00
51299;BME280;37382;45.192;9.790;2023-05-22T09:34:12;101005.66;;;24.12;100.00
51299;BME280;37382;45.192;9.790;2023-05-22T09:36:43;101002.56;;;24.19;100.00
51299;BME280;37382;45.192;9.790;2023-05-22T09:39:11;101002.06;;;24.12;100.00
51299;BME280;37382;45.192;9.790;2023-05-22T09:41:39;101001.78;;;24.03;100.00
51299;BME280;37382;45.192;9.790;2023-05-22T09:44:11;101000.91;;;24.13;100.00
51299;BME280;37382;45.192;9.790;2023-05-22T09:46:41;100999.28;;;24.12;100.00
51299;BME280;37382;45.192;9.790;2023-05-22T09:49:10;100992.94;;;23.86;100.00
51299;BME280;37382;45.192;9.790;2023-05-22T09:51:44;101001.78;;;24.08;100.00
51299;BME280;37382;45.192;9.790;2023-05-22T09:54:15;100998.72;;;24.00;100.00
51299;BME280;37382;45.192;9.790;2023-05-22T09:56:48;101000.72;;;23.58;100.00
51299;BME280;37382;45.192;9.790;2023-05-22T09:59:19;100996.78;;;24.05;100.00
51299;BME280;37382;45.192;9.790;2023-05-22T10:01:49;100988.38;;;24.21;100.00
51299;BME280;37382;45.192;9.790;2023-05-22T10:04:18;100998.09;;;24.33;100.00
51299;BME280;37382;45.192;9.790;2023-05-22T10:06:52;100991.50;;;24.09;100.00
51299;BME280;37382;45.192;9.790;2023-05-22T10:09:23;100994.09;;;24.55;100.00
51299;BME280;37382;45.192;9.790;2023-05-22T10:11:53;100992.28;;;24.25;100.00
51299;BME280;37382;45.192;9.790;2023-05-22T10:14:24;100985.44;;;24.67;100.00
51299;BME280;37382;45.192;9.790;2023-05-22T10:16:55;100986.19;;;24.23;100.00
51299;BME280;37382;45.192;9.790;2023-05-22T10:19:23;100988.59;;;24.40;100.00
51299;BME280;37382;45.192;9.790;2023-05-22T10:21:55;100980.19;;;25.00;100.00
51299;BME280;37382;45.192;9.790;2023-05-22T10:24:23;100988.56;;;25.00;100.00
51299;BME280;37382;45.192;9.790;2023-05-22T10:26:52;100982.78;;;24.91;100.00
51299;BME280;37382;45.192;9.790;2023-05-22T10:29:30;100985.44;;;24.62;100.00
51299;BME280;37382;45.192;9.790;2023-05-22T10:32:09;100983.16;;;25.14;100.00
51299;BME280;37382;45.192;9.790;2023-05-22T10:34:58;100985.09;;;24.74;100.00
51299;BME280;37382;45.192;9.790;2023-05-22T10:40:09;100975.69;;;25.73;100.00
51299;BME280;37382;45.192;9.790;2023-05-22T10:42:38;100982.00;;;24.80;100.00
51299;BME280;37382;45.192;9.790;2023-05-22T10:45:06;100979.81;;;25.51;100.00
51299;BME280;37382;45.192;9.790;2023-05-22T10:47:35;100987.03;;;24.78;100.00
51299;BME280;37382;45.192;9.790;2023-05-22T10:50:08;100974.38;;;25.65;100.00
51299;BME280;37382;45.192;9.790;2023-05-22T10:52:37;100982.03;;;25.54;100.00
51299;BME280;37382;45.192;9.790;2023-05-22T10:55:06;100980.47;;;25.72;100.00
51299;BME280;37382;45.192;9.790;2023-05-22T10:57:36;100975.84;;;25.87;100.00
51299;BME280;37382;45.192;9.790;2023-05-22T11:00:11;100968.88;;;26.14;96.06
51299;BME280;37382;45.192;9.790;2023-05-22T11:02:44;100971.56;;;26.67;96.33
51299;BME280;37382;45.192;9.790;2023-05-22T11:05:31;100964.41;;;26.80;88.90
51299;BME280;37382;45.192;9.790;2023-05-22T11:10:55;100958.91;;;27.27;87.06
51299;BME280;37382;45.192;9.790;2023-05-22T11:13:27;100958.88;;;26.75;87.47
51299;BME280;37382;45.192;9.790;2023-05-22T11:15:55;100957.03;;;26.46;84.48
51299;BME280;37382;45.192;9.790;2023-05-22T11:18:27;100951.06;;;26.77;84.74
51299;BME280;37382;45.192;9.790;2023-05-22T11:20:57;100951.44;;;26.89;85.78
51299;BME280;37382;45.192;9.790;2023-05-22T11:23:25;100948.75;;;27.17;84.51
51299;BME280;37382;45.192;9.790;2023-05-22T11:25:53;100947.06;;;27.16;96.73
51299;BME280;37382;45.192;9.790;2023-05-22T11:28:21;100940.56;;;26.69;89.13
51299;BME280;37382;45.192;9.790;2023-05-22T11:30:49;100942.56;;;27.01;86.81
51299;BME280;37382;45.192;9.790;2023-05-22T11:33:18;100939.34;;;26.75;82.89
51299;BME280;37382;45.192;9.790;2023-05-22T11:35:46;100935.91;;;27.49;79.73
51299;BME280;37382;45.192;9.790;2023-05-22T11:38:15;100938.38;;;27.97;78.44
51299;BME280;37382;45.192;9.790;2023-05-22T11:40:43;100939.50;;;28.24;84.50
51299;BME280;37382;45.192;9.790;2023-05-22T11:43:10;100936.66;;;28.38;80.68
51299;BME280;37382;45.192;9.790;2023-05-22T11:45:38;100936.50;;;28.20;79.50
51299;BME280;37382;45.192;9.790;2023-05-22T11:48:07;100938.38;;;26.85;79.00
51299;BME280;37382;45.192;9.790;2023-05-22T11:50:35;100940.03;;;26.23;80.71
51299;BME280;37382;45.192;9.790;2023-05-22T11:53:09;100946.06;;;26.12;81.35
51299;BME280;37382;45.192;9.790;2023-05-22T11:55:36;100933.19;;;26.54;79.14
51299;BME280;37382;45.192;9.790;2023-05-22T11:58:04;100926.41;;;26.60;80.80
51299;BME280;37382;45.192;9.790;2023-05-22T12:00:32;100931.66;;;26.67;86.89
51299;BME280;37382;45.192;9.790;2023-05-22T12:02:59;100928.88;;;27.19;82.94
51299;BME280;37382;45.192;9.790;2023-05-22T12:05:30;100928.38;;;27.16;82.20
51299;BME280;37382;45.192;9.790;2023-05-22T12:07:58;100925.28;;;27.18;78.04
51299;BME280;37382;45.192;9.790;2023-05-22T12:10:25;100926.44;;;27.78;75.44
51299;BME280;37382;45.192;9.790;2023-05-22T12:12:53;100934.88;;;26.93;76.85
51299;BME280;37382;45.192;9.790;2023-05-22T12:15:23;100927.31;;;26.55;76.98
51299;BME280;37382;45.192;9.790;2023-05-22T12:17:53;100918.16;;;27.26;83.44
51299;BME280;37382;45.192;9.790;2023-05-22T12:20:28;100916.66;;;28.45;76.70
51299;BME280;37382;45.192;9.790;2023-05-22T12:22:55;100913.91;;;28.03;74.88
51299;BME280;37382;45.192;9.790;2023-05-22T12:25:23;100917.31;;;27.58;73.60
51299;BME280;37382;45.192;9.790;2023-05-22T12:27:50;100911.50;;;28.24;77.26
51299;BME280;37382;45.192;9.790;2023-05-22T12:30:18;100914.09;;;28.34;77.71
51299;BME280;37382;45.192;9.790;2023-05-22T12:32:46;100909.19;;;28.90;74.31
51299;BME280;37382;45.192;9.790;2023-05-22T12:35:17;100909.69;;;29.78;69.81
51299;BME280;37382;45.192;9.790;2023-05-22T12:37:51;100907.72;;;30.36;63.98
51299;BME280;37382;45.192;9.790;2023-05-22T12:40:19;100896.00;;;30.34;61.95
51299;BME280;37382;45.192;9.790;2023-05-22T12:42:47;100899.97;;;29.44;64.52
51299;BME280;37382;45.192;9.790;2023-05-22T12:45:15;100901.56;;;29.68;66.09
51299;BME280;37382;45.192;9.790;2023-05-22T12:47:44;100897.28;;;30.19;62.19
51299;BME280;37382;45.192;9.790;2023-05-22T12:50:13;100897.59;;;30.00;59.10
51299;BME280;37382;45.192;9.790;2023-05-22T12:52:41;100898.72;;;29.27;61.30
51299;BME280;37382;45.192;9.790;2023-05-22T12:55:09;100892.44;;;29.22;61.95
51299;BME280;37382;45.192;9.790;2023-05-22T12:57:37;100887.38;;;29.64;62.34
51299;BME280;37382;45.192;9.790;2023-05-22T13:00:05;100890.72;;;30.32;64.07
51299;BME280;37382;45.192;9.790;2023-05-22T13:02:34;100888.44;;;30.96;60.47
51299;BME280;37382;45.192;9.790;2023-05-22T13:05:02;100877.13;;;31.31;60.62
51299;BME280;37382;45.192;9.790;2023-05-22T13:07:31;100880.34;;;30.85;60.02
51299;BME280;37382;45.192;9.790;2023-05-22T13:09:59;100874.06;;;30.89;56.20
51299;BME280;37382;45.192;9.790;2023-05-22T13:12:27;100880.84;;;31.52;56.67
51299;BME280;37382;45.192;9.790;2023-05-22T13:14:54;100883.94;;;31.21;58.45
51299;BME280;37382;45.192;9.790;2023-05-22T13:17:23;100874.38;;;30.87;60.29
51299;BME280;37382;45.192;9.790;2023-05-22T13:19:50;100875.91;;;31.49;55.08
51299;BME280;37382;45.192;9.790;2023-05-22T13:22:18;100865.50;;;31.41;55.68
51299;BME280;37382;45.192;9.790;2023-05-22T13:24:46;100873.31;;;31.35;58.88